createdAt,value
2018-10-19T00:00:24.466Z,98.60
2018-10-19T00:02:53.407Z,96.83
2018-10-19T00:05:22.003Z,96.13
2018-10-19T00:07:50.835Z,101.27
2018-10-19T00:10:19.355Z,98.77
2018-10-19T00:12:48.012Z,111.47
2018-10-19T00:15:16.557Z,103.00
2018-10-19T00:17:45.300Z,103.37
2018-10-19T00:20:13.872Z,109.90
2018-10-19T00:22:42.516Z,102.77
2018-10-19T00:25:11.063Z,110.07
2018-10-19T00:27:39.611Z,119.00
2018-10-19T00:30:09.444Z,116.27
2018-10-19T00:32:38.723Z,128.10
2018-10-19T00:35:08.507Z,108.70
2018-10-19T00:37:37.050Z,120.50
2018-10-19T00:40:06.131Z,113.10
2018-10-19T00:42:34.924Z,114.83
2018-10-19T00:45:03.652Z,108.67
2018-10-19T00:47:32.123Z,119.03
2018-10-19T00:50:00.657Z,113.00
2018-10-19T00:52:29.193Z,121.13
2018-10-19T00:54:57.789Z,118.03
2018-10-19T00:57:26.290Z,116.47
2018-10-19T00:59:54.805Z,115.57
2018-10-19T01:02:23.303Z,111.63
2018-10-19T01:04:51.888Z,136.70
2018-10-19T01:07:20.406Z,124.63
2018-10-19T01:09:48.951Z,116.80
2018-10-19T01:12:17.463Z,120.77
2018-10-19T01:14:46.030Z,130.30
2018-10-19T01:17:14.669Z,136.87
2018-10-19T01:19:43.099Z,129.83
2018-10-19T01:22:11.632Z,125.73
2018-10-19T01:24:40.220Z,127.53
2018-10-19T01:27:09.005Z,132.27
2018-10-19T01:29:37.463Z,144.97
2018-10-19T01:32:06.404Z,146.47
2018-10-19T01:34:34.935Z,137.30
2018-10-19T01:37:04.964Z,131.07
2018-10-19T01:39:33.522Z,151.03
2018-10-19T01:42:02.046Z,152.20
2018-10-19T01:44:32.078Z,166.37
2018-10-19T01:47:00.657Z,172.17
2018-10-19T01:49:29.179Z,185.70
2018-10-19T01:51:57.695Z,164.80
2018-10-19T01:54:26.249Z,166.50
2018-10-19T01:56:54.823Z,171.27
2018-10-19T01:59:23.360Z,167.93
2018-10-19T02:01:51.875Z,163.67
2018-10-19T02:04:20.571Z,179.67
2018-10-19T02:06:49.082Z,166.77
2018-10-19T02:09:17.617Z,166.83
2018-10-19T02:11:46.139Z,190.47
2018-10-19T02:14:14.687Z,193.60
2018-10-19T02:16:43.281Z,180.07
2018-10-19T02:19:11.840Z,185.80
2018-10-19T02:21:40.378Z,184.63
2018-10-19T02:24:08.916Z,187.63
2018-10-19T02:26:37.478Z,197.90
2018-10-19T02:29:06.096Z,215.67
2018-10-19T02:31:34.661Z,219.07
2018-10-19T02:34:03.236Z,203.77
2018-10-19T02:36:31.916Z,206.37
2018-10-19T02:39:00.562Z,217.20
2018-10-19T02:41:29.049Z,209.63
2018-10-19T02:43:57.939Z,210.40
2018-10-19T02:46:26.526Z,208.17
2018-10-19T02:48:55.083Z,200.53
2018-10-19T02:51:23.660Z,224.83
2018-10-19T02:53:52.193Z,240.37
2018-10-19T02:56:20.831Z,217.20
2018-10-19T02:58:49.375Z,223.43
2018-10-19T03:01:17.961Z,260.03
2018-10-19T03:03:46.518Z,223.00
2018-10-19T03:06:15.083Z,219.37
2018-10-19T03:08:43.591Z,232.70
2018-10-19T03:11:12.243Z,225.97
2018-10-19T03:13:40.725Z,243.00
2018-10-19T03:16:09.352Z,249.57
2018-10-19T03:18:38.106Z,238.73
2018-10-19T03:21:07.042Z,240.43
2018-10-19T03:23:35.528Z,269.67
2018-10-19T03:26:04.329Z,265.60
2018-10-19T03:28:32.889Z,235.40
2018-10-19T03:31:01.476Z,270.47
2018-10-19T03:33:29.999Z,295.37
2018-10-19T03:35:58.590Z,266.50
2018-10-19T03:38:27.212Z,274.27
2018-10-19T03:40:55.796Z,269.00
2018-10-19T03:43:24.645Z,307.00
2018-10-19T03:45:53.220Z,272.57
2018-10-19T03:48:21.852Z,295.20
2018-10-19T03:50:50.416Z,253.13
2018-10-19T03:53:19.044Z,298.77
2018-10-19T03:55:47.565Z,259.10
2018-10-19T03:58:16.098Z,275.13
2018-10-19T04:00:44.646Z,244.30
2018-10-19T04:03:13.229Z,294.47
2018-10-19T04:05:41.715Z,262.83
2018-10-19T04:08:10.294Z,269.00
2018-10-19T04:10:38.966Z,313.97
2018-10-19T04:13:07.506Z,290.53
2018-10-19T04:15:36.058Z,307.40
2018-10-19T04:18:04.595Z,272.33
2018-10-19T04:20:33.155Z,309.47
2018-10-19T04:23:10.257Z,305.97
2018-10-19T04:25:39.571Z,292.70
2018-10-19T04:28:08.108Z,266.40
2018-10-19T04:30:37.631Z,277.27
2018-10-19T04:33:06.715Z,300.27
2018-10-19T04:35:35.276Z,324.77
2018-10-19T04:38:03.926Z,287.53
2018-10-19T04:40:32.485Z,311.33
2018-10-19T04:43:01.466Z,294.80
2018-10-19T04:45:30.070Z,271.87
2018-10-19T04:47:58.591Z,284.17
2018-10-19T04:50:27.131Z,288.50
2018-10-19T04:52:55.745Z,316.60
2018-10-19T04:55:24.303Z,301.13
2018-10-19T04:57:52.829Z,305.70
2018-10-19T05:00:21.955Z,272.67
2018-10-19T05:02:51.435Z,283.60
2018-10-19T05:05:20.260Z,274.37
2018-10-19T05:07:48.746Z,295.43
2018-10-19T05:10:17.353Z,279.57
2018-10-19T05:12:45.927Z,299.50
2018-10-19T05:15:14.472Z,306.00
2018-10-19T05:17:43.016Z,368.50
2018-10-19T05:20:12.912Z,262.37
2018-10-19T05:22:41.387Z,295.00
2018-10-19T05:25:12.399Z,277.87
2018-10-19T05:27:41.066Z,260.97
2018-10-19T05:30:11.831Z,305.80
2018-10-19T05:32:41.160Z,261.80
2018-10-19T05:35:09.780Z,298.40
2018-10-19T05:37:39.322Z,312.17
2018-10-19T05:40:09.096Z,309.90
2018-10-19T05:42:37.859Z,279.40
2018-10-19T05:45:08.584Z,311.63
2018-10-19T05:47:37.129Z,293.87
2018-10-19T05:50:06.746Z,373.93
2018-10-19T05:52:35.290Z,338.53
2018-10-19T05:55:03.889Z,265.67
2018-10-19T05:57:32.437Z,299.40
2018-10-19T06:00:01.008Z,267.50
2018-10-19T06:02:30.078Z,279.87
2018-10-19T06:04:58.653Z,275.60
2018-10-19T06:07:27.128Z,239.77
2018-10-19T06:09:55.728Z,279.20
2018-10-19T06:12:24.274Z,266.77
2018-10-19T06:14:52.784Z,253.03
2018-10-19T06:17:21.305Z,214.07
2018-10-19T06:19:49.840Z,214.27
2018-10-19T06:22:18.380Z,211.17
2018-10-19T06:24:47.118Z,207.57
2018-10-19T06:27:15.698Z,204.00
2018-10-19T06:29:44.205Z,188.07
2018-10-19T06:32:12.861Z,189.10
2018-10-19T06:34:41.366Z,176.73
2018-10-19T06:37:09.903Z,180.53
2018-10-19T06:39:38.440Z,171.23
2018-10-19T06:42:06.993Z,162.93
2018-10-19T06:44:35.548Z,160.47
2018-10-19T06:47:04.175Z,159.00
2018-10-19T06:49:32.630Z,143.60
2018-10-19T06:52:01.180Z,165.27
2018-10-19T06:54:29.791Z,143.97
2018-10-19T06:56:58.338Z,127.87
2018-10-19T06:59:26.946Z,130.67
2018-10-19T07:01:55.515Z,120.77
2018-10-19T07:04:24.043Z,107.27
2018-10-19T07:06:52.603Z,109.30
2018-10-19T07:09:21.113Z,114.60
2018-10-19T07:11:49.658Z,105.80
2018-10-19T07:14:18.255Z,124.03
2018-10-19T07:16:46.763Z,104.00
2018-10-19T07:19:15.288Z,97.47
2018-10-19T07:21:43.853Z,95.93
2018-10-19T07:24:12.416Z,99.53
2018-10-19T07:26:41.273Z,99.07
2018-10-19T07:29:10.400Z,99.07
2018-10-19T07:31:39.179Z,95.83
2018-10-19T07:34:07.869Z,88.97
2018-10-19T07:36:36.479Z,89.07
2018-10-19T07:39:06.632Z,83.80
2018-10-19T07:41:35.183Z,81.70
2018-10-19T07:44:03.788Z,82.37
2018-10-19T07:46:32.351Z,83.33
2018-10-19T07:49:01.055Z,78.70
2018-10-19T07:51:29.967Z,76.93
2018-10-19T07:53:58.553Z,80.53
2018-10-19T07:56:27.049Z,74.70
2018-10-19T07:58:55.587Z,78.47
2018-10-19T08:01:24.795Z,75.73
2018-10-19T08:03:53.795Z,75.47
2018-10-19T08:06:22.365Z,73.13
2018-10-19T08:08:50.900Z,72.77
2018-10-19T08:11:19.431Z,74.60
2018-10-19T08:13:48.043Z,69.70
2018-10-19T08:16:16.610Z,82.50
2018-10-19T08:18:45.095Z,71.57
2018-10-19T08:21:13.664Z,72.57
2018-10-19T08:23:42.192Z,77.60
2018-10-19T08:26:10.840Z,75.07
2018-10-19T08:28:39.332Z,76.63
2018-10-19T08:31:07.869Z,72.33
2018-10-19T08:33:36.414Z,70.23
2018-10-19T08:36:04.989Z,67.73
2018-10-19T08:38:33.544Z,69.00
2018-10-19T08:41:02.793Z,67.03
2018-10-19T08:43:31.324Z,71.03
2018-10-19T08:46:05.131Z,66.40
2018-10-19T08:48:33.965Z,69.60
2018-10-19T08:51:02.708Z,72.77
2018-10-19T08:53:31.277Z,65.83
2018-10-19T08:55:59.877Z,67.87
2018-10-19T08:58:28.459Z,68.13
2018-10-19T09:00:56.979Z,75.30
2018-10-19T09:03:25.519Z,71.13
2018-10-19T09:05:54.066Z,70.13
2018-10-19T09:08:22.608Z,71.10
2018-10-19T09:10:51.359Z,68.83
2018-10-19T09:13:20.124Z,64.83
2018-10-19T09:15:48.639Z,67.20
2018-10-19T09:18:17.227Z,66.17
2018-10-19T09:20:45.748Z,65.33
2018-10-19T09:23:14.654Z,65.63
2018-10-19T09:25:43.213Z,63.00
2018-10-19T09:28:11.756Z,65.73
2018-10-19T09:30:40.280Z,64.27
2018-10-19T09:33:08.846Z,63.53
2018-10-19T09:35:37.464Z,58.83
2018-10-19T09:38:06.326Z,62.07
2018-10-19T09:40:34.812Z,62.90
2018-10-19T09:43:03.331Z,61.00
2018-10-19T09:45:31.846Z,57.93
2018-10-19T09:48:00.415Z,61.47
2018-10-19T09:50:28.903Z,57.10
2018-10-19T09:52:57.447Z,62.73
2018-10-19T09:55:25.980Z,59.67
2018-10-19T09:57:54.520Z,57.50
2018-10-19T10:00:29.296Z,63.37
2018-10-19T10:02:57.831Z,52.03
2018-10-19T10:05:26.323Z,57.93
2018-10-19T10:07:54.987Z,60.10
2018-10-19T10:10:23.565Z,53.60
2018-10-19T10:12:52.095Z,58.43
2018-10-19T10:15:21.564Z,54.33
2018-10-19T10:17:50.076Z,50.40
2018-10-19T10:20:18.610Z,52.93
2018-10-19T10:22:47.140Z,50.33
2018-10-19T10:25:15.811Z,48.80
2018-10-19T10:27:44.344Z,50.43
2018-10-19T10:30:13.016Z,53.13
2018-10-19T10:32:41.695Z,48.13
2018-10-19T10:35:10.879Z,44.93
2018-10-19T10:37:39.389Z,45.20
2018-10-19T10:40:08.439Z,43.03
2018-10-19T10:42:37.465Z,43.90
2018-10-19T10:45:06.686Z,44.47
2018-10-19T10:47:35.230Z,40.17
2018-10-19T10:50:03.843Z,44.43
2018-10-19T10:52:32.342Z,41.50
2018-10-19T10:55:01.024Z,43.53
2018-10-19T10:57:29.527Z,46.93
2018-10-19T10:59:58.062Z,44.45
2018-10-19T11:02:26.677Z,45.57
2018-10-19T11:04:55.219Z,46.80
2018-10-19T11:07:23.802Z,41.00
2018-10-19T11:09:52.468Z,41.93
2018-10-19T11:12:21.018Z,44.47
2018-10-19T11:14:49.545Z,41.83
2018-10-19T11:17:18.513Z,41.20
2018-10-19T11:19:47.046Z,40.60
2018-10-19T11:22:15.570Z,38.93
2018-10-19T11:24:44.085Z,39.53
2018-10-19T11:27:12.587Z,41.27
2018-10-19T11:29:41.838Z,38.17
2018-10-19T11:32:11.462Z,39.10
2018-10-19T11:34:40.937Z,38.10
2018-10-19T11:37:10.642Z,38.35
2018-10-19T11:39:49.758Z,39.23
2018-10-19T11:42:19.191Z,39.33
2018-10-19T11:44:48.680Z,39.10
2018-10-19T11:47:18.173Z,38.33
2018-10-19T11:49:47.563Z,35.08
2018-10-19T11:52:17.124Z,36.30
2018-10-19T11:54:46.418Z,37.25
2018-10-19T11:57:15.926Z,39.20
2018-10-19T11:59:45.308Z,37.00
2018-10-19T12:02:14.560Z,34.60
2018-10-19T12:04:44.134Z,33.13
2018-10-19T12:07:13.507Z,33.28
2018-10-19T12:09:43.435Z,36.88
2018-10-19T12:12:12.821Z,34.05
2018-10-19T12:14:42.900Z,33.10
2018-10-19T12:17:12.106Z,40.43
2018-10-19T12:19:41.197Z,34.63
2018-10-19T12:22:10.370Z,38.88
2018-10-19T12:24:40.134Z,33.80
2018-10-19T12:27:09.375Z,36.80
2018-10-19T12:29:38.512Z,34.95
2018-10-19T12:32:08.156Z,35.88
2018-10-19T12:34:37.853Z,38.60
2018-10-19T12:37:07.967Z,35.48
2018-10-19T12:39:38.081Z,35.60
2018-10-19T12:42:07.572Z,34.23
2018-10-19T12:44:37.544Z,35.68
2018-10-19T12:47:18.067Z,32.65
2018-10-19T12:49:47.534Z,36.20
2018-10-19T12:52:17.111Z,33.85
2018-10-19T12:54:46.552Z,37.05
2018-10-19T12:57:16.087Z,35.88
2018-10-19T12:59:44.614Z,34.50
2018-10-19T13:02:14.488Z,37.83
2018-10-19T13:04:43.017Z,35.85
2018-10-19T13:07:11.592Z,33.20
2018-10-19T13:09:40.139Z,37.35
2018-10-19T13:12:08.673Z,34.75
2018-10-19T13:14:37.186Z,34.88
2018-10-19T13:17:06.453Z,35.03
2018-10-19T13:19:35.356Z,36.33
2018-10-19T13:22:04.175Z,35.98
2018-10-19T13:24:32.699Z,37.48
2018-10-19T13:27:01.473Z,36.73
2018-10-19T13:29:29.916Z,34.73
2018-10-19T13:31:58.601Z,38.35
2018-10-19T13:34:27.333Z,34.65
2018-10-19T13:36:55.872Z,36.38
2018-10-19T13:39:24.367Z,36.88
2018-10-19T13:41:52.899Z,34.18
2018-10-19T13:44:21.383Z,38.48
2018-10-19T13:46:49.930Z,34.53
2018-10-19T13:49:18.480Z,33.45
2018-10-19T13:51:47.020Z,37.33
2018-10-19T13:54:15.520Z,35.43
2018-10-19T13:56:44.070Z,35.43
2018-10-19T13:59:12.663Z,37.42
2018-10-19T14:01:41.163Z,35.17
2018-10-19T14:04:09.699Z,32.28
2018-10-19T14:06:38.215Z,28.50
2018-10-19T14:09:08.903Z,37.50
2018-10-19T14:11:37.743Z,36.73
2018-10-19T14:14:06.314Z,33.40
2018-10-19T14:16:34.840Z,34.73
2018-10-19T14:19:03.487Z,34.25
2018-10-19T14:21:32.048Z,35.38
2018-10-19T14:24:00.538Z,37.10
2018-10-19T14:26:29.110Z,37.42
2018-10-19T14:28:57.601Z,33.13
2018-10-19T14:31:26.166Z,31.17
2018-10-19T14:33:54.663Z,33.95
2018-10-19T14:36:23.197Z,33.38
2018-10-19T14:38:51.751Z,32.40
2018-10-19T14:41:20.246Z,33.58
2018-10-19T14:43:48.777Z,34.05
2018-10-19T14:46:17.317Z,32.55
2018-10-19T14:48:45.892Z,31.07
2018-10-19T14:51:14.429Z,31.15
2018-10-19T14:53:42.944Z,35.43
2018-10-19T14:56:11.434Z,36.65
2018-10-19T14:58:39.955Z,34.75
2018-10-19T15:01:08.501Z,32.95
2018-10-19T15:03:37.031Z,34.70
2018-10-19T15:06:06.119Z,35.55
2018-10-19T15:08:34.971Z,38.30
2018-10-19T15:11:03.540Z,37.25
2018-10-19T15:13:31.995Z,34.60
2018-10-19T15:16:00.541Z,34.55
2018-10-19T15:18:29.099Z,36.17
2018-10-19T15:20:57.617Z,40.08
2018-10-19T15:23:26.140Z,34.20
2018-10-19T15:25:54.630Z,35.50
2018-10-19T15:28:23.204Z,36.67
2018-10-19T15:30:51.686Z,38.73
2018-10-19T15:33:20.309Z,40.47
2018-10-19T15:35:48.848Z,37.40
2018-10-19T15:38:17.384Z,37.63
2018-10-19T15:40:45.918Z,39.03
2018-10-19T15:43:15.053Z,41.53
2018-10-19T15:45:43.559Z,39.80
2018-10-19T15:48:12.174Z,40.63
2018-10-19T15:50:40.634Z,37.53
2018-10-19T15:53:09.270Z,36.17
2018-10-19T15:55:37.762Z,36.13
2018-10-19T15:58:06.537Z,36.67
2018-10-19T16:00:35.094Z,39.53
2018-10-19T16:03:03.593Z,45.63
2018-10-19T16:05:32.092Z,44.83
2018-10-19T16:08:00.676Z,52.10
2018-10-19T16:10:29.275Z,46.63
2018-10-19T16:12:57.807Z,42.67
2018-10-19T16:15:26.293Z,40.43
2018-10-19T16:17:54.837Z,41.27
2018-10-19T16:20:23.340Z,44.50
2018-10-19T16:22:51.891Z,48.83
2018-10-19T16:25:20.404Z,49.20
2018-10-19T16:27:48.895Z,48.37
2018-10-19T16:30:17.461Z,46.80
2018-10-19T16:32:46.048Z,42.27
2018-10-19T16:35:14.553Z,43.23
2018-10-19T16:37:43.042Z,46.07
2018-10-19T16:40:11.648Z,44.50
2018-10-19T16:42:40.166Z,46.97
2018-10-19T16:45:09.337Z,51.50
2018-10-19T16:47:37.854Z,47.20
2018-10-19T16:50:06.712Z,48.13
2018-10-19T16:52:35.340Z,46.53
2018-10-19T16:55:03.936Z,47.67
2018-10-19T16:57:33.127Z,50.20
2018-10-19T17:00:01.800Z,45.57
2018-10-19T17:02:30.811Z,51.13
2018-10-19T17:04:59.386Z,54.60
2018-10-19T17:07:27.908Z,51.90
2018-10-19T17:09:56.448Z,54.63
2018-10-19T17:12:24.948Z,55.50
2018-10-19T17:14:53.536Z,53.43
2018-10-19T17:17:22.026Z,55.20
2018-10-19T17:19:50.596Z,53.77
2018-10-19T17:22:19.112Z,49.57
2018-10-19T17:24:47.642Z,55.93
2018-10-19T17:27:16.253Z,51.80
2018-10-19T17:29:44.749Z,53.93
2018-10-19T17:32:13.248Z,52.30
2018-10-19T17:34:42.379Z,59.57
2018-10-19T17:37:11.792Z,53.90
2018-10-19T17:39:40.941Z,56.47
2018-10-19T17:42:10.479Z,56.40
2018-10-19T17:44:39.597Z,52.13
2018-10-19T17:47:10.694Z,55.13
2018-10-19T17:49:40.135Z,55.07
2018-10-19T17:52:09.557Z,55.70
2018-10-19T17:54:38.507Z,61.40
2018-10-19T17:57:07.455Z,55.57
2018-10-19T17:59:36.198Z,55.87
2018-10-19T18:02:04.912Z,59.10
2018-10-19T18:04:33.498Z,58.67
2018-10-19T18:07:01.984Z,61.93
2018-10-19T18:09:31.620Z,61.43
2018-10-19T18:12:00.133Z,55.90
2018-10-19T18:14:28.662Z,57.90
2018-10-19T18:16:57.171Z,61.67
2018-10-19T18:19:25.695Z,57.97
2018-10-19T18:21:54.478Z,61.53
2018-10-19T18:24:22.896Z,81.43
2018-10-19T18:26:51.941Z,104.13
2018-10-19T18:29:20.951Z,90.70
2018-10-19T18:31:49.445Z,87.50
2018-10-19T18:34:17.998Z,85.80
2018-10-19T18:36:46.583Z,71.17
2018-10-19T18:39:15.794Z,76.50
2018-10-19T18:41:44.897Z,79.87
2018-10-19T18:44:13.516Z,78.43
2018-10-19T18:46:41.964Z,73.77
2018-10-19T18:49:10.525Z,59.70
2018-10-19T18:51:39.084Z,60.13
2018-10-19T18:54:07.582Z,59.17
2018-10-19T18:56:36.239Z,70.90
2018-10-19T18:59:05.113Z,79.10
2018-10-19T19:01:33.660Z,84.87
2018-10-19T19:04:02.425Z,74.37
2018-10-19T19:06:30.995Z,80.53
2018-10-19T19:08:59.541Z,79.80
2018-10-19T19:11:28.135Z,69.53
2018-10-19T19:13:56.663Z,67.23
2018-10-19T19:16:27.447Z,66.77
2018-10-19T19:18:56.156Z,71.70
2018-10-19T19:21:24.820Z,63.33
2018-10-19T19:23:58.645Z,57.70
2018-10-19T19:26:28.067Z,59.73
2018-10-19T19:28:57.143Z,63.40
2018-10-19T19:31:25.682Z,71.50
2018-10-19T19:33:59.604Z,70.13
2018-10-19T19:36:28.130Z,67.97
2018-10-19T19:38:56.693Z,65.93
2018-10-19T19:41:30.566Z,65.50
2018-10-19T19:43:59.428Z,63.83
2018-10-19T19:46:28.025Z,60.53
2018-10-19T19:49:01.987Z,74.90
2018-10-19T19:51:30.577Z,71.67
2018-10-19T19:53:59.108Z,85.10
2018-10-19T19:56:27.604Z,71.50
2018-10-19T19:58:56.193Z,79.40
2018-10-19T20:01:24.708Z,75.23
2018-10-19T20:03:53.312Z,78.17
2018-10-19T20:06:22.088Z,82.27
2018-10-19T20:08:50.545Z,78.40
2018-10-19T20:11:19.075Z,81.20
2018-10-19T20:13:47.877Z,80.73
2018-10-19T20:16:16.406Z,84.93
2018-10-19T20:18:45.404Z,84.80
2018-10-19T20:21:13.939Z,84.70
2018-10-19T20:23:42.513Z,90.97
2018-10-19T20:26:11.140Z,98.97
2018-10-19T20:28:40.936Z,102.50
2018-10-19T20:31:10.112Z,96.07
2018-10-19T20:33:38.645Z,98.43
2018-10-19T20:36:07.278Z,96.50
2018-10-19T20:38:35.820Z,103.07
2018-10-19T20:41:04.741Z,107.87
2018-10-19T20:43:33.222Z,102.63
2018-10-19T20:46:01.721Z,107.53
2018-10-19T20:48:30.242Z,100.60
2018-10-19T20:50:59.039Z,97.50
2018-10-19T20:53:27.593Z,94.43
2018-10-19T20:55:56.452Z,95.30
2018-10-19T20:58:24.981Z,101.57
2018-10-19T21:00:53.595Z,88.93
2018-10-19T21:03:22.086Z,85.90
2018-10-19T21:05:50.592Z,74.20
2018-10-19T21:08:19.128Z,64.43
2018-10-19T21:10:47.626Z,68.40
2018-10-19T21:13:16.178Z,79.83
2018-10-19T21:15:44.697Z,76.03
2018-10-19T21:18:13.252Z,79.17
2018-10-19T21:20:42.332Z,81.63
2018-10-19T21:23:10.907Z,83.93
2018-10-19T21:25:39.396Z,83.57
2018-10-19T21:28:07.936Z,88.70
2018-10-19T21:30:36.439Z,75.10
2018-10-19T21:33:06.380Z,78.17
2018-10-19T21:35:34.936Z,73.57
2018-10-19T21:38:03.563Z,68.30
2018-10-19T21:40:32.058Z,69.03
2018-10-19T21:43:01.199Z,65.90
2018-10-19T21:45:29.699Z,62.97
2018-10-19T21:47:58.247Z,59.17
2018-10-19T21:50:26.726Z,63.70
2018-10-19T21:52:55.279Z,62.63
2018-10-19T21:55:23.795Z,66.07
2018-10-19T21:57:52.339Z,75.87
2018-10-19T22:00:20.860Z,64.23
2018-10-19T22:02:49.370Z,68.50
2018-10-19T22:05:18.211Z,100.40
2018-10-19T22:07:46.921Z,81.37
2018-10-19T22:10:15.283Z,90.67
2018-10-19T22:12:43.771Z,96.23
2018-10-19T22:15:12.294Z,84.63
2018-10-19T22:17:40.848Z,95.87
2018-10-19T22:20:10.331Z,90.13
2018-10-19T22:22:38.816Z,80.57
2018-10-19T22:25:07.430Z,80.53
2018-10-19T22:27:35.900Z,90.00
2018-10-19T22:30:04.962Z,91.13
2018-10-19T22:32:33.457Z,89.40
2018-10-19T22:35:02.042Z,86.10
2018-10-19T22:37:30.555Z,81.47
2018-10-19T22:39:59.053Z,70.97
2018-10-19T22:42:30.293Z,62.43
2018-10-19T22:45:00.755Z,59.63
2018-10-19T22:47:29.300Z,57.97
2018-10-19T22:49:57.832Z,55.67
2018-10-19T22:52:26.428Z,57.53
2018-10-19T22:54:54.982Z,54.33
2018-10-19T22:57:23.516Z,57.97
2018-10-19T22:59:52.275Z,57.27
2018-10-19T23:02:20.791Z,59.00
2018-10-19T23:04:49.343Z,60.50
2018-10-19T23:07:17.904Z,67.17
2018-10-19T23:09:46.492Z,67.53
2018-10-19T23:12:14.983Z,77.63
2018-10-19T23:14:43.572Z,78.00
2018-10-19T23:17:12.128Z,66.97
2018-10-19T23:19:41.488Z,65.23
2018-10-19T23:22:10.021Z,66.57
2018-10-19T23:24:38.566Z,56.87
2018-10-19T23:27:07.073Z,57.40
2018-10-19T23:29:35.585Z,59.43
2018-10-19T23:32:04.201Z,61.97
2018-10-19T23:34:32.768Z,61.47
2018-10-19T23:37:01.258Z,63.50
2018-10-19T23:39:29.805Z,56.63
2018-10-19T23:41:58.319Z,57.83
2018-10-19T23:44:26.856Z,58.47
2018-10-19T23:46:55.404Z,59.67
2018-10-19T23:49:23.919Z,54.47
2018-10-19T23:51:52.439Z,51.60
2018-10-19T23:54:20.943Z,49.23
2018-10-19T23:56:49.432Z,49.13
2018-10-19T23:59:17.990Z,50.90
